Bobcaygeon, Canada
Current Conditions -  °F | °C
As of 11:29 AM on Thursday 29 Jan 2015 (Local Time) from CYPQ Reporting Station
Light Snow Light Snow  
Wind Chill: 15°   Ceiling: 1900
Heat Index: 25°   Visibility: 2.5mi
Dew Point: 21°   Wind: 10mph
Humidity: 86%   Direction: 130°SE
Pressure: 29.88"   Gusts: 21mph
Location:  44.53°N, 78.55°W
Report Text: CYPQ 291629Z AUTO 13009G18KT 2 1/2SM -SN OVC019 M04/M06 A2988 RMK VIS VRB 1 3/4-3 PRESFR SLP133
Loading
Personal Weather Stations






























Interactive Weather Map New forecast layout! Learn more

10-Day Weather Forecast

Advertisements
Track Severe Weather on mobile